Nogales International Airport Nogales US
ICAO: KOLS
IATA: OLS
Category: Medium
Scheduled Services: No

Elevation: 3955 ft
TransAlt. 18000 ft.

Airport Communications:
TUCSON APP DEP:125.1
ASOS:121.125
PRESCOTT RDO:122.4
CTAF/UNICOM:122.8

KOLS Zoom In..

Runways:

(A) RW 03 length 7200 ft width 100 ft
---- / hdg 34

(B) RW 21 length 7200 ft width 100 ft
---- / hdg 214

Location; KOLS
Day. 20 / Time. 09.54 Zulu
* Altimeter: 29.99
* Temperature: 11° c. 51.8°f.
* Wind from: 260° Speed 05 kn.
Dewpoint: -05° c.
Visibility: 10 Statute Miles.
Clouds: Clear (automated report).

KOLS 200954Z AUTO 26005KT 10SM CLR 11/M05 A2999 RMK AO2 SLP100 T01061050


Wind From 260°
Speed 05 kn.

  YouTube Music Video
 
jpsmedia.com for Web Design  worldairports.se 2018   terms of use